Time;durP1;ratioP1;P1;durP2;ratioP2;P2;SDS_P1;SDS_P2;PMS_P1;PMS_P2;Temp;Humidity;BMP_temperature;BMP_pressure;BME280_temperature;BME280_humidity;BME280_pressure;Samples;Min_cycle;Max_cycle;Signal;HPM_P1;HPM_P2
2022/07/13 00:00:31;;;;;;;7.13;5.50;;;23.10;1.00;;;;;;6133628;23;20183;-86
2022/07/13 00:02:58;;;;;;;5.47;4.97;;;22.90;1.00;;;;;;6156344;23;20609;-87
2022/07/13 00:05:26;;;;;;;6.30;4.93;;;23.00;1.00;;;;;;6138371;23;20573;-84
2022/07/13 00:07:53;;;;;;;6.00;5.10;;;23.00;1.00;;;;;;6183030;23;20184;-87
2022/07/13 00:10:20;;;;;;;5.70;4.60;;;23.00;99.90;;;;;;6136213;23;20158;-87
2022/07/13 00:12:47;;;;;;;5.77;5.27;;;23.00;1.00;;;;;;6185873;23;20167;-87
2022/07/13 00:15:14;;;;;;;6.43;4.97;;;23.00;99.90;;;;;;6162450;23;20511;-87
2022/07/13 00:17:40;;;;;;;5.73;5.03;;;23.10;99.90;;;;;;6167296;23;20239;-83
2022/07/13 00:20:08;;;;;;;7.73;5.53;;;23.00;1.00;;;;;;6173645;23;20164;-82
2022/07/13 00:22:35;;;;;;;7.13;5.60;;;23.00;1.00;;;;;;6152528;23;20171;-82
2022/07/13 00:25:02;;;;;;;7.13;6.17;;;22.90;1.00;;;;;;6170617;23;20191;-87
2022/07/13 00:27:28;;;;;;;6.63;5.93;;;22.90;1.00;;;;;;6166550;23;20195;-85
2022/07/13 00:29:55;;;;;;;6.63;5.93;;;22.90;1.00;;;;;;6141902;23;20501;-87
2022/07/13 00:32:22;;;;;;;8.23;6.63;;;22.90;1.00;;;;;;6141582;23;20603;-87
2022/07/13 00:34:49;;;;;;;7.03;6.33;;;22.90;1.00;;;;;;6188543;23;20219;-88
2022/07/13 00:37:16;;;;;;;7.37;6.67;;;22.80;1.00;;;;;;6140766;23;20249;-88
2022/07/13 00:39:43;;;;;;;7.63;6.50;;;22.70;99.90;;;;;;6166187;23;20269;-87
2022/07/13 00:42:10;;;;;;;10.77;6.60;;;22.70;99.90;;;;;;6169178;23;20163;-88
2022/07/13 00:44:37;;;;;;;8.80;7.23;;;22.70;1.00;;;;;;6144454;23;20197;-86
2022/07/13 00:47:05;;;;;;;7.43;6.73;;;22.70;4.30;;;;;;6186984;23;20242;-87
2022/07/13 00:49:32;;;;;;;8.10;6.70;;;22.80;1.00;;;;;;6186268;23;20214;-85
2022/07/13 00:51:59;;;;;;;10.93;7.67;;;22.80;1.00;;;;;;6136090;23;20230;-87
2022/07/13 00:54:29;;;;;;;8.80;7.97;;;22.70;99.90;;;;;;6135004;23;20636;-88
2022/07/13 00:56:57;;;;;;;10.03;6.87;;;22.50;1.00;;;;;;6183803;23;20176;-88
2022/07/13 00:59:25;;;;;;;8.27;7.40;;;22.60;1.00;;;;;;6159175;23;20215;-86
2022/07/13 01:01:54;;;;;;;9.40;7.27;;;22.60;1.00;;;;;;6158789;23;20161;-87
2022/07/13 01:04:25;;;;;;;7.67;6.57;;;22.60;1.00;;;;;;6183180;23;20282;-87
2022/07/13 01:06:56;;;;;;;7.50;6.70;;;22.60;1.00;;;;;;6184033;23;20160;-88
2022/07/13 01:09:23;;;;;;;9.20;6.53;;;22.60;1.00;;;;;;6183319;23;20203;-88
2022/07/13 01:11:51;;;;;;;9.03;7.27;;;22.70;99.90;;;;;;6160377;23;20542;-86
2022/07/13 01:14:18;;;;;;;9.20;6.90;;;22.60;1.00;;;;;;6186055;23;20275;-86
2022/07/13 01:16:45;;;;;;;7.70;6.70;;;22.60;1.00;;;;;;6184405;23;20160;-87
2022/07/13 01:19:13;;;;;;;9.40;7.20;;;22.60;1.00;;;;;;6185128;23;20928;-86
2022/07/13 01:21:44;;;;;;;7.67;6.77;;;22.60;1.00;;;;;;6160620;23;20164;-87
2022/07/13 01:24:12;;;;;;;7.47;6.63;;;22.70;1.00;;;;;;6160452;23;20244;-87
2022/07/13 01:26:39;;;;;;;7.57;6.87;;;22.60;1.00;;;;;;6159666;23;20455;-85
2022/07/13 01:29:07;;;;;;;7.83;6.77;;;22.60;1.00;;;;;;6185193;23;20228;-88
2022/07/13 01:31:39;;;;;;;9.43;6.00;;;22.60;1.00;;;;;;6209369;23;20165;-87
2022/07/13 01:34:08;;;;;;;7.17;6.27;;;22.70;1.00;;;;;;6183523;23;20164;-88
2022/07/13 01:36:36;;;;;;;7.50;6.73;;;22.70;99.90;;;;;;6159631;23;20216;-84
2022/07/13 01:39:04;;;;;;;7.47;6.47;;;22.70;99.90;;;;;;6185249;23;20239;-87
2022/07/13 01:41:31;;;;;;;10.40;7.03;;;22.60;99.90;;;;;;6184329;23;20250;-86
2022/07/13 01:43:59;;;;;;;7.83;6.33;;;22.50;1.00;;;;;;6184146;23;20227;-87
2022/07/13 01:46:26;;;;;;;9.33;6.70;;;22.60;1.00;;;;;;6131746;23;20212;-82
2022/07/13 01:48:54;;;;;;;6.83;5.60;;;22.50;91.00;;;;;;6130325;23;20160;-85
2022/07/13 01:51:21;;;;;;;7.27;6.40;;;22.60;99.90;;;;;;6150648;23;20873;-87
2022/07/13 01:53:49;;;;;;;7.07;6.37;;;22.50;99.90;;;;;;6129680;23;20165;-84
2022/07/13 01:56:16;;;;;;;6.17;5.40;;;22.60;99.90;;;;;;6153485;23;20652;-88
2022/07/13 01:58:42;;;;;;;6.13;5.53;;;22.50;1.00;;;;;;6129173;23;20239;-85
2022/07/13 02:01:09;;;;;;;6.80;6.10;;;22.60;99.90;;;;;;6151489;23;20203;-86
2022/07/13 02:03:36;;;;;;;6.63;5.93;;;22.60;99.90;;;;;;6102890;23;20197;-86
2022/07/13 02:06:05;;;;;;;8.43;6.30;;;22.60;99.90;;;;;;6152086;23;20168;-87
2022/07/13 02:08:32;;;;;;;6.23;5.63;;;22.60;99.90;;;;;;6153345;23;20808;-86
2022/07/13 02:10:59;;;;;;;7.80;5.60;;;22.50;99.90;;;;;;6111754;23;20173;-86
2022/07/13 02:13:25;;;;;;;6.90;6.20;;;22.60;99.90;;;;;;6180555;23;20245;-85
2022/07/13 02:15:52;;;;;;;6.33;5.57;;;22.50;99.90;;;;;;6129527;23;20262;-87
2022/07/13 02:18:20;;;;;;;8.10;5.47;;;22.40;1.00;;;;;;6130535;23;20193;-86
2022/07/13 02:20:47;;;;;;;5.90;5.33;;;22.50;1.00;;;;;;6104302;23;20167;-82
2022/07/13 02:23:15;;;;;;;8.70;5.73;;;22.50;1.00;;;;;;6127644;23;20173;-87
2022/07/13 02:25:42;;;;;;;6.07;5.47;;;22.50;1.00;;;;;;6129570;23;20208;-83
2022/07/13 02:28:09;;;;;;;7.53;5.90;;;22.50;1.00;;;;;;6104468;23;20199;-87
2022/07/13 02:30:36;;;;;;;6.67;5.27;;;22.40;62.90;;;;;;6126575;23;20169;-85
2022/07/13 02:33:04;;;;;;;6.80;5.07;;;22.30;1.00;;;;;;6127897;23;20227;-87
2022/07/13 02:35:31;;;;;;;7.17;5.23;;;22.40;1.00;;;;;;6177753;23;20211;-87
2022/07/13 02:37:58;;;;;;;5.70;5.10;;;22.50;99.90;;;;;;6128114;23;20164;-87
2022/07/13 02:40:25;;;;;;;5.80;4.90;;;22.50;1.00;;;;;;6151634;23;20203;-83
2022/07/13 02:42:52;;;;;;;5.00;4.50;;;22.50;1.00;;;;;;6129552;23;20158;-86
2022/07/13 02:45:19;;;;;;;5.23;4.60;;;22.60;1.00;;;;;;6129009;23;20196;-87
2022/07/13 02:47:46;;;;;;;4.77;4.27;;;22.50;1.00;;;;;;6120605;23;20587;-86
2022/07/13 02:50:13;;;;;;;6.07;4.63;;;22.50;1.00;;;;;;6181945;23;20164;-87
2022/07/13 02:52:41;;;;;;;4.90;4.00;;;22.50;99.90;;;;;;6181599;23;20167;-85
2022/07/13 02:55:09;;;;;;;5.17;4.23;;;22.50;1.00;;;;;;6180892;23;20883;-83
2022/07/13 02:57:36;;;;;;;4.80;4.20;;;22.50;1.00;;;;;;6156084;23;20600;-86
2022/07/13 03:00:05;;;;;;;6.93;3.97;;;22.50;1.00;;;;;;6181169;23;20249;-86
2022/07/13 03:02:32;;;;;;;4.30;3.90;;;22.50;1.00;;;;;;6183458;23;20161;-87
2022/07/13 03:04:59;;;;;;;4.77;4.13;;;22.50;1.00;;;;;;6208470;23;20257;-83
2022/07/13 03:07:26;;;;;;;5.37;3.73;;;22.60;1.00;;;;;;6158316;23;20581;-88
2022/07/13 03:09:53;;;;;;;7.77;4.57;;;22.50;1.00;;;;;;6155181;23;20161;-86
2022/07/13 03:12:23;;;;;;;6.77;4.20;;;22.50;1.00;;;;;;6158461;23;20229;-87
2022/07/13 03:14:50;;;;;;;5.13;3.60;;;22.50;1.00;;;;;;6157053;23;20821;-88
2022/07/13 03:17:18;;;;;;;4.97;4.27;;;22.50;1.00;;;;;;6134130;23;20175;-87
2022/07/13 03:19:45;;;;;;;4.80;3.80;;;22.40;1.00;;;;;;6157616;23;20168;-85
2022/07/13 03:22:11;;;;;;;9.90;4.33;;;22.50;1.00;;;;;;6133317;23;20876;-87
2022/07/13 03:24:38;;;;;;;7.37;4.27;;;22.50;1.00;;;;;;6132926;23;20207;-85
2022/07/13 03:27:05;;;;;;;4.00;3.50;;;22.40;1.00;;;;;;6158233;23;20434;-86
2022/07/13 03:29:32;;;;;;;5.40;4.10;;;22.50;1.00;;;;;;6132937;23;20223;-83
2022/07/13 03:31:59;;;;;;;7.67;3.90;;;22.40;1.00;;;;;;6133100;23;20198;-85
2022/07/13 03:34:26;;;;;;;3.63;3.33;;;22.50;1.00;;;;;;6157684;23;20163;-86
2022/07/13 03:36:53;;;;;;;6.87;4.00;;;22.50;1.00;;;;;;6158905;23;20156;-86
2022/07/13 03:39:20;;;;;;;6.63;3.77;;;22.50;1.00;;;;;;6181914;23;20188;-84
2022/07/13 03:41:47;;;;;;;4.77;3.70;;;22.50;1.00;;;;;;6133717;23;20926;-85
2022/07/13 03:44:14;;;;;;;4.90;3.80;;;22.50;1.00;;;;;;6133628;23;20256;-82
2022/07/13 03:46:41;;;;;;;4.50;4.10;;;22.40;1.00;;;;;;6153917;23;20156;-86
2022/07/13 03:49:08;;;;;;;5.33;4.20;;;22.30;1.00;;;;;;6129425;23;20192;-87
2022/07/13 03:51:36;;;;;;;4.47;4.07;;;22.40;1.00;;;;;;6153049;23;20164;-87
2022/07/13 03:54:03;;;;;;;3.97;3.50;;;22.30;1.00;;;;;;6178950;23;20168;-86
2022/07/13 03:56:30;;;;;;;4.37;3.97;;;22.20;1.00;;;;;;6151885;23;20169;-85
2022/07/13 03:58:57;;;;;;;4.97;3.77;;;22.10;1.00;;;;;;6154542;23;20161;-86
2022/07/13 04:01:24;;;;;;;4.77;3.90;;;22.10;1.00;;;;;;6152639;23;20161;-86
2022/07/13 04:03:51;;;;;;;4.50;3.50;;;22.00;1.00;;;;;;6128496;23;20161;-86
2022/07/13 04:06:18;;;;;;;4.60;3.67;;;22.10;1.00;;;;;;6127264;23;20179;-86
2022/07/13 04:08:46;;;;;;;5.27;3.73;;;22.00;1.00;;;;;;6152609;23;20601;-87
2022/07/13 04:11:13;;;;;;;5.70;3.90;;;22.10;1.00;;;;;;6150098;23;20246;-85
2022/07/13 04:13:40;;;;;;;5.97;3.50;;;22.20;1.00;;;;;;6133360;23;20177;-84
2022/07/13 04:16:07;;;;;;;4.17;3.73;;;22.20;1.00;;;;;;6160944;23;20165;-86
2022/07/13 04:18:34;;;;;;;8.47;3.63;;;22.10;1.00;;;;;;6165132;23;20221;-84
2022/07/13 04:21:01;;;;;;;6.13;3.83;;;22.10;1.00;;;;;;6159237;23;20199;-86
2022/07/13 04:23:30;;;;;;;3.50;3.20;;;22.00;1.00;;;;;;6133242;23;20169;-85
2022/07/13 04:25:57;;;;;;;9.83;3.80;;;21.90;1.00;;;;;;6156142;23;20181;-86
2022/07/13 04:28:24;;;;;;;5.67;3.80;;;21.90;1.00;;;;;;6154948;23;20464;-85
2022/07/13 04:30:52;;;;;;;4.13;3.73;;;22.00;1.00;;;;;;6130936;23;20166;-83
2022/07/13 04:33:18;;;;;;;5.87;4.00;;;21.90;1.00;;;;;;6129678;23;20173;-87
2022/07/13 04:35:46;;;;;;;5.90;3.70;;;21.90;99.90;;;;;;6132062;23;20170;-85
2022/07/13 04:38:13;;;;;;;4.53;3.77;;;22.00;1.00;;;;;;6154430;23;20190;-86
2022/07/13 04:40:41;;;;;;;5.20;3.57;;;22.10;1.00;;;;;;6178202;23;20202;-87
2022/07/13 04:43:08;;;;;;;4.47;3.57;;;22.20;1.00;;;;;;6154531;23;20168;-87
2022/07/13 04:45:35;;;;;;;4.20;3.63;;;22.30;1.00;;;;;;6129060;23;20191;-87
2022/07/13 04:48:03;;;;;;;3.90;3.50;;;22.30;1.00;;;;;;6149362;23;20226;-87
2022/07/13 04:50:30;;;;;;;4.40;3.50;;;22.30;1.00;;;;;;6208175;23;20435;-86
2022/07/13 04:52:57;;;;;;;6.00;3.53;;;22.30;1.00;;;;;;6134040;23;20180;-83
2022/07/13 04:55:24;;;;;;;7.30;3.70;;;22.30;1.00;;;;;;6134963;23;20217;-87
2022/07/13 04:57:53;;;;;;;4.10;3.70;;;22.40;49.70;;;;;;6135594;23;20178;-86
2022/07/13 05:00:20;;;;;;;3.87;3.47;;;22.30;1.00;;;;;;6182130;23;20168;-86
2022/07/13 05:02:47;;;;;;;6.03;3.50;;;22.30;1.00;;;;;;6134799;23;20183;-85
2022/07/13 05:05:14;;;;;;;4.60;3.60;;;22.30;99.90;;;;;;6180722;23;20202;-87
2022/07/13 05:07:41;;;;;;;13.50;3.20;;;22.20;1.00;;;;;;6157689;23;20168;-84
2022/07/13 05:10:09;;;;;;;4.50;3.20;;;22.30;1.00;;;;;;6181230;23;20229;-86
2022/07/13 05:12:41;;;;;;;5.67;3.60;;;22.40;1.00;;;;;;6182082;23;20222;-85
2022/07/13 05:15:09;;;;;;;4.20;3.80;;;22.40;1.00;;;;;;6182430;23;20178;-86
2022/07/13 05:17:36;;;;;;;4.77;3.80;;;22.50;1.00;;;;;;6208432;23;20313;-86
2022/07/13 05:20:04;;;;;;;6.83;3.60;;;22.50;1.00;;;;;;6182085;23;20174;-83
2022/07/13 05:22:31;;;;;;;4.10;3.20;;;22.50;1.00;;;;;;6133462;23;20160;-85
2022/07/13 05:24:59;;;;;;;4.87;3.63;;;22.60;1.00;;;;;;6156727;23;20200;-86
2022/07/13 05:27:26;;;;;;;3.97;2.93;;;22.60;1.00;;;;;;6182516;23;20164;-84
2022/07/13 05:29:53;;;;;;;6.73;4.47;;;22.60;1.00;;;;;;6156981;23;20171;-84
2022/07/13 05:32:20;;;;;;;2.97;2.77;;;22.50;1.00;;;;;;6184214;23;20168;-86
2022/07/13 05:34:47;;;;;;;7.83;3.17;;;22.50;1.00;;;;;;6184280;23;20166;-86
2022/07/13 05:37:14;;;;;;;5.47;3.40;;;22.40;99.90;;;;;;6133367;23;20230;-86
2022/07/13 05:39:46;;;;;;;4.67;3.57;;;22.40;99.90;;;;;;6133942;23;20205;-85
2022/07/13 05:42:14;;;;;;;4.93;3.30;;;22.40;99.90;;;;;;6182298;23;20219;-86
2022/07/13 05:44:40;;;;;;;5.07;3.03;;;22.40;99.90;;;;;;6159588;23;20231;-86
2022/07/13 05:47:07;;;;;;;6.13;3.87;;;22.50;1.00;;;;;;6183360;23;20204;-86
2022/07/13 05:49:34;;;;;;;6.90;3.63;;;22.60;99.90;;;;;;6136224;23;20216;-84
2022/07/13 05:52:01;;;;;;;3.83;3.20;;;22.50;99.90;;;;;;6157667;23;20175;-86
2022/07/13 05:54:30;;;;;;;4.33;3.10;;;22.40;11.80;;;;;;6208552;23;20166;-86
2022/07/13 05:57:09;;;;;;;5.47;3.00;;;22.50;99.90;;;;;;6163632;23;20227;-83
2022/07/13 05:59:36;;;;;;;7.53;3.20;;;22.70;99.90;;;;;;6158356;23;20172;-83
2022/07/13 06:02:03;;;;;;;5.43;3.60;;;22.80;99.90;;;;;;6154381;23;20182;-83
2022/07/13 06:04:30;;;;;;;4.03;3.47;;;22.70;1.00;;;;;;6136355;23;20468;-90
2022/07/13 06:06:57;;;;;;;5.10;3.60;;;22.60;99.90;;;;;;6168605;23;20159;-93
2022/07/13 06:09:24;;;;;;;6.47;3.70;;;22.70;1.00;;;;;;6150410;23;20169;-87
2022/07/13 06:11:51;;;;;;;5.17;3.40;;;22.70;1.00;;;;;;6189462;23;20168;-84
2022/07/13 06:14:18;;;;;;;8.30;4.00;;;22.90;99.90;;;;;;6134410;23;20167;-83
2022/07/13 06:16:45;;;;;;;4.57;3.87;;;22.90;1.00;;;;;;6132359;23;20192;-80
2022/07/13 06:19:12;;;;;;;5.50;3.30;;;22.90;1.00;;;;;;6132192;23;20185;-83
2022/07/13 06:21:38;;;;;;;5.23;3.53;;;23.00;1.00;;;;;;6180638;23;20173;-87
2022/07/13 06:24:06;;;;;;;5.30;3.67;;;23.20;99.90;;;;;;6182354;23;20205;-87
2022/07/13 06:26:33;;;;;;;4.97;3.47;;;23.20;1.00;;;;;;6184546;23;20183;-87
2022/07/13 06:29:00;;;;;;;6.83;3.83;;;23.30;1.00;;;;;;6158758;23;20613;-87
2022/07/13 06:31:27;;;;;;;5.90;3.60;;;23.30;1.00;;;;;;6159636;23;20162;-89
2022/07/13 06:33:53;;;;;;;6.53;3.70;;;23.30;1.00;;;;;;6159362;23;20198;-87
2022/07/13 06:36:20;;;;;;;8.70;4.00;;;23.30;1.00;;;;;;6180617;23;20636;-87
2022/07/13 06:38:49;;;;;;;6.17;3.77;;;23.30;1.00;;;;;;6180677;23;20168;-86
2022/07/13 06:41:18;;;;;;;6.17;3.77;;;23.30;1.00;;;;;;6178156;23;20198;-87
2022/07/13 06:43:45;;;;;;;4.27;3.30;;;23.50;1.00;;;;;;6186615;23;20619;-85
2022/07/13 06:46:12;;;;;;;3.93;3.30;;;23.60;1.00;;;;;;6139453;23;20276;-86
2022/07/13 06:48:39;;;;;;;5.83;3.47;;;23.70;1.00;;;;;;6159836;23;20206;-86
2022/07/13 06:51:06;;;;;;;4.40;3.97;;;23.70;1.00;;;;;;6161568;23;20156;-85
2022/07/13 06:53:33;;;;;;;5.50;3.30;;;23.70;1.00;;;;;;6184195;23;20160;-85
2022/07/13 06:56:00;;;;;;;7.10;3.30;;;23.80;1.00;;;;;;6138349;23;20187;-86
2022/07/13 06:58:27;;;;;;;5.43;3.40;;;23.70;1.00;;;;;;6184852;23;20499;-86
2022/07/13 07:00:54;;;;;;;6.43;3.73;;;23.90;1.00;;;;;;6160517;23;20183;-85
2022/07/13 07:03:21;;;;;;;5.97;3.70;;;23.90;1.00;;;;;;6162017;23;20454;-86
2022/07/13 07:05:49;;;;;;;6.30;3.67;;;23.90;1.00;;;;;;6212967;23;20210;-88
2022/07/13 07:08:16;;;;;;;4.57;3.57;;;23.80;1.00;;;;;;6159735;23;20161;-86
2022/07/13 07:10:43;;;;;;;4.10;3.57;;;24.10;1.00;;;;;;6158924;23;20163;-87
2022/07/13 07:13:11;;;;;;;5.50;3.83;;;24.20;1.00;;;;;;6184834;23;20173;-87
2022/07/13 07:15:38;;;;;;;3.80;3.43;;;24.20;1.00;;;;;;6136284;23;20169;-86
2022/07/13 07:18:05;;;;;;;6.87;4.00;;;24.20;1.00;;;;;;6160922;23;20545;-85
2022/07/13 07:20:36;;;;;;;8.13;3.57;;;24.30;1.00;;;;;;6137862;23;20186;-88
2022/07/13 07:23:03;;;;;;;8.17;3.50;;;24.70;1.00;;;;;;6159957;23;20259;-85
2022/07/13 07:25:30;;;;;;;7.93;4.07;;;25.10;99.90;;;;;;6162295;23;20198;-87
2022/07/13 07:27:57;;;;;;;6.90;4.20;;;24.90;99.90;;;;;;6134021;23;20171;-87
2022/07/13 07:30:24;;;;;;;4.77;3.40;;;24.50;1.00;;;;;;6158312;23;20168;-85
2022/07/13 07:32:51;;;;;;;6.97;4.20;;;24.40;1.00;;;;;;6159723;23;20233;-85
2022/07/13 07:35:19;;;;;;;5.23;3.63;;;24.40;1.00;;;;;;6184695;23;20172;-89
2022/07/13 07:37:46;;;;;;;6.33;3.83;;;24.40;1.00;;;;;;6185050;23;20435;-83
2022/07/13 07:40:14;;;;;;;7.20;3.77;;;24.50;1.00;;;;;;6159874;23;20208;-86
2022/07/13 07:42:41;;;;;;;7.33;3.60;;;24.40;1.00;;;;;;6183896;23;20168;-86
2022/07/13 07:45:08;;;;;;;4.80;3.40;;;24.50;1.00;;;;;;6159833;23;20192;-86
2022/07/13 07:47:36;;;;;;;4.77;4.17;;;24.50;74.90;;;;;;6196836;23;20272;-85
2022/07/13 07:50:05;;;;;;;5.03;3.83;;;24.50;1.00;;;;;;6154451;23;20232;-85
2022/07/13 07:52:32;;;;;;;5.50;3.90;;;24.70;1.00;;;;;;6131741;23;20513;-84
2022/07/13 07:55:19;;;;;;;5.40;3.53;;;24.80;1.00;;;;;;6159578;23;20160;-84
2022/07/13 07:57:52;;;;;;;4.20;3.70;;;24.80;1.00;;;;;;6131384;23;20500;-86
2022/07/13 08:00:20;;;;;;;5.37;3.70;;;24.90;1.00;;;;;;6154775;23;20176;-85
2022/07/13 08:02:47;;;;;;;7.83;3.57;;;24.80;1.00;;;;;;6181973;23;20189;-86
2022/07/13 08:05:14;;;;;;;4.23;3.43;;;24.80;1.00;;;;;;6179902;23;20189;-86
2022/07/13 08:07:42;;;;;;;7.67;4.13;;;24.80;1.00;;;;;;6132480;23;20221;-84
2022/07/13 08:10:12;;;;;;;5.20;4.03;;;24.60;1.00;;;;;;6133871;23;20169;-85
2022/07/13 08:12:54;;;;;;;4.30;3.90;;;24.60;1.00;;;;;;6144855;23;20175;-82
2022/07/13 08:15:22;;;;;;;7.03;3.63;;;24.50;1.00;;;;;;6141060;23;20201;-85
2022/07/13 08:17:49;;;;;;;7.57;3.60;;;24.50;1.00;;;;;;6137290;23;20160;-86
2022/07/13 08:20:16;;;;;;;5.50;3.73;;;24.50;14.40;;;;;;6157644;23;20168;-86
2022/07/13 08:22:48;;;;;;;5.17;4.07;;;24.50;99.90;;;;;;6159588;23;20164;-87
2022/07/13 08:25:15;;;;;;;4.00;3.57;;;24.50;1.00;;;;;;6158662;23;20190;-86
2022/07/13 08:27:43;;;;;;;4.80;3.97;;;24.50;80.00;;;;;;6134246;23;20241;-85
2022/07/13 08:30:13;;;;;;;5.10;4.00;;;24.50;1.00;;;;;;6131662;23;20242;-85
2022/07/13 08:32:40;;;;;;;5.63;4.43;;;24.50;50.10;;;;;;6159457;23;20161;-85
2022/07/13 08:40:42;;;;;;;5.30;4.50;;;24.40;1.00;;;;;;6160803;23;20569;-85
2022/07/13 08:43:09;;;;;;;5.63;4.43;;;24.50;99.90;;;;;;6131514;23;20719;-85
2022/07/13 08:45:36;;;;;;;5.77;4.60;;;24.40;1.00;;;;;;6132120;23;20183;-86
2022/07/13 08:48:20;;;;;;;7.80;4.40;;;24.40;1.00;;;;;;6174203;23;20266;-86
2022/07/13 08:50:47;;;;;;;8.40;5.13;;;24.40;1.00;;;;;;6185825;23;20172;-86
2022/07/13 08:53:15;;;;;;;6.60;4.40;;;24.30;1.00;;;;;;6162115;23;20166;-82
2022/07/13 08:55:43;;;;;;;9.03;5.17;;;24.50;1.00;;;;;;6139245;23;20165;-85
2022/07/13 08:58:17;;;;;;;5.00;4.40;;;24.60;1.00;;;;;;6212807;23;20156;-86
2022/07/13 09:00:44;;;;;;;7.80;5.23;;;24.60;1.00;;;;;;6212068;23;20210;-86
2022/07/13 09:03:11;;;;;;;8.73;5.10;;;24.90;1.00;;;;;;6160766;23;20179;-85
2022/07/13 09:05:38;;;;;;;7.70;4.20;;;24.90;99.90;;;;;;6162415;23;20182;-86
2022/07/13 09:08:07;;;;;;;8.80;4.10;;;25.00;99.90;;;;;;6162498;23;20177;-85
2022/07/13 09:10:56;;;;;;;5.57;4.23;;;25.00;99.90;;;;;;6186592;23;20188;-82
2022/07/13 09:13:44;;;;;;;4.33;3.90;;;24.90;99.90;;;;;;6214303;23;20224;-86
2022/07/13 09:16:19;;;;;;;5.10;4.00;;;24.90;1.00;;;;;;6186588;23;20166;-85
2022/07/13 09:18:51;;;;;;;6.13;3.83;;;25.00;99.90;;;;;;6213801;23;20659;-84
2022/07/13 09:21:27;;;;;;;5.83;3.73;;;25.10;99.90;;;;;;6164689;23;20168;-85
2022/07/13 09:23:55;;;;;;;5.67;3.23;;;25.40;1.00;;;;;;6185572;23;20183;-86
2022/07/13 09:26:22;;;;;;;6.97;3.23;;;25.50;1.00;;;;;;6186578;23;20199;-84
2022/07/13 09:28:51;;;;;;;3.20;2.60;;;25.70;1.00;;;;;;6186661;23;20265;-85
2022/07/13 09:31:18;;;;;;;7.37;2.93;;;25.80;99.90;;;;;;6213366;23;20158;-86
2022/07/13 09:33:46;;;;;;;3.93;2.73;;;25.70;1.00;;;;;;6162373;23;20186;-85
2022/07/13 09:36:20;;;;;;;5.53;2.70;;;25.80;32.10;;;;;;6186532;23;20165;-86
2022/07/13 09:38:53;;;;;;;4.25;2.70;;;25.70;1.00;;;;;;6186593;23;20471;-84
2022/07/13 09:41:24;;;;;;;4.47;2.90;;;26.10;99.90;;;;;;6184993;23;20491;-82
2022/07/13 09:46:50;;;;;;;3.80;2.73;;;26.10;1.00;;;;;;6212368;23;20640;-82
2022/07/13 09:49:18;;;;;;;3.90;2.20;;;25.80;27.90;;;;;;6186051;23;20156;-83
2022/07/13 09:51:45;;;;;;;6.00;2.67;;;25.90;99.90;;;;;;6183015;23;20211;-83
2022/07/13 09:54:13;;;;;;;3.92;2.42;;;26.20;1.00;;;;;;6135444;23;20538;-82
2022/07/13 09:56:46;;;;;;;4.40;2.55;;;27.30;1.00;;;;;;6157253;23;20178;-82
2022/07/13 09:59:16;;;;;;;4.22;2.50;;;27.30;1.00;;;;;;6185035;23;20584;-80
2022/07/13 10:01:45;;;;;;;3.47;2.38;;;26.80;1.00;;;;;;6181667;23;20164;-82
2022/07/13 10:04:14;;;;;;;4.75;2.53;;;26.40;1.00;;;;;;6182951;23;20603;-80
2022/07/13 10:07:01;;;;;;;3.13;2.60;;;26.60;1.00;;;;;;6187811;23;20838;-81
2022/07/13 10:09:32;;;;;;;6.82;2.40;;;26.40;1.00;;;;;;6182326;23;20160;-82
2022/07/13 10:12:04;;;;;;;4.57;2.28;;;26.90;1.00;;;;;;6183434;23;20628;-82
2022/07/13 10:14:31;;;;;;;3.65;2.38;;;27.30;1.00;;;;;;6184200;23;20171;-82
2022/07/13 10:17:21;;;;;;;3.60;2.30;;;26.70;1.00;;;;;;6158556;23;20215;-82
2022/07/13 10:20:02;;;;;;;5.05;2.78;;;26.90;1.00;;;;;;6182598;23;20169;-82
2022/07/13 10:22:34;;;;;;;3.72;2.33;;;26.90;1.00;;;;;;6212015;23;20175;-79
2022/07/13 10:25:02;;;;;;;2.25;2.05;;;26.90;1.00;;;;;;6210003;23;20549;-81
2022/07/13 10:27:33;;;;;;;4.70;2.40;;;26.60;99.90;;;;;;6160275;23;20575;-82
2022/07/13 10:30:07;;;;;;;4.10;2.00;;;26.50;1.00;;;;;;6183314;23;20165;-84
2022/07/13 10:32:36;;;;;;;3.22;1.98;;;26.60;99.90;;;;;;6183729;23;20160;-81
2022/07/13 10:35:09;;;;;;;3.70;2.20;;;26.60;99.90;;;;;;6184018;23;20252;-81
2022/07/13 10:38:01;;;;;;;3.25;2.13;;;26.60;99.90;;;;;;6209044;23;20182;-81
2022/07/13 10:40:34;;;;;;;3.20;2.30;;;26.70;99.90;;;;;;6182515;23;20216;-82
2022/07/13 10:43:03;;;;;;;4.20;2.33;;;26.80;1.00;;;;;;6154435;23;20207;-81
2022/07/13 10:45:34;;;;;;;2.73;2.23;;;26.90;1.00;;;;;;6180800;23;20578;-82
2022/07/13 10:48:04;;;;;;;4.97;2.47;;;26.70;1.00;;;;;;6180305;23;20302;-79
2022/07/13 10:50:47;;;;;;;5.27;3.07;;;26.60;1.00;;;;;;6181521;23;20172;-82
2022/07/13 10:53:18;;;;;;;4.23;2.60;;;26.80;1.00;;;;;;6181242;23;20163;-82
2022/07/13 10:55:50;;;;;;;3.60;2.77;;;27.00;1.00;;;;;;6203768;23;20197;-82
2022/07/13 10:58:39;;;;;;;4.87;2.30;;;26.50;1.00;;;;;;6155178;23;20162;-82
2022/07/13 11:01:33;;;;;;;2.93;2.43;;;26.60;99.90;;;;;;6178054;23;20517;-80
2022/07/13 11:04:00;;;;;;;4.63;2.50;;;26.90;99.90;;;;;;6206098;23;20229;-82
2022/07/13 11:06:29;;;;;;;3.67;2.47;;;26.90;99.90;;;;;;6180573;23;20639;-80
2022/07/13 11:09:22;;;;;;;4.03;2.30;;;26.90;99.90;;;;;;6178770;23;20163;-79
2022/07/13 11:11:51;;;;;;;5.73;2.63;;;26.80;99.90;;;;;;6201281;23;20179;-81
2022/07/13 11:14:38;;;;;;;3.13;2.10;;;26.80;99.90;;;;;;6180456;23;20526;-82
2022/07/13 11:17:27;;;;;;;4.03;2.40;;;27.70;99.90;;;;;;6175733;23;20472;-83
2022/07/13 11:20:12;;;;;;;6.50;2.53;;;28.70;99.90;;;;;;6181074;23;20175;-79
2022/07/13 11:25:48;;;;;;;3.93;2.07;;;27.80;93.00;;;;;;6184260;23;20261;-82
2022/07/13 11:28:27;;;;;;;2.67;2.40;;;27.60;99.90;;;;;;6177781;23;20561;-82
2022/07/13 11:30:55;;;;;;;4.30;2.13;;;28.00;1.00;;;;;;6206883;23;20272;-81
2022/07/13 11:33:22;;;;;;;4.50;2.10;;;28.10;1.00;;;;;;6155541;23;20167;-82
2022/07/13 11:35:50;;;;;;;3.20;1.90;;;28.10;1.00;;;;;;6204965;23;20213;-83
2022/07/13 11:38:19;;;;;;;3.30;1.70;;;28.40;1.00;;;;;;6179582;23;20164;-80
2022/07/13 11:40:47;;;;;;;4.37;2.03;;;28.00;1.00;;;;;;6173452;23;20647;-82
2022/07/13 11:43:14;;;;;;;2.47;2.20;;;27.80;1.00;;;;;;6203000;23;20234;-80
2022/07/13 11:45:42;;;;;;;2.55;1.98;;;28.50;1.00;;;;;;6126653;23;20168;-79
2022/07/13 11:48:13;;;;;;;2.90;1.90;;;29.00;1.00;;;;;;6172679;23;21004;-79
2022/07/13 11:50:48;;;;;;;3.05;2.20;;;28.70;1.00;;;;;;6173601;23;20226;-79
2022/07/13 11:53:30;;;;;;;1.93;1.73;;;29.10;1.00;;;;;;6164233;23;20218;-81
2022/07/13 11:56:03;;;;;;;4.90;1.80;;;28.80;1.00;;;;;;6206321;23;20156;-82
2022/07/13 11:58:32;;;;;;;2.10;1.90;;;29.80;1.00;;;;;;6158714;23;20156;-81
2022/07/13 12:01:00;;;;;;;4.40;2.07;;;29.90;1.00;;;;;;6154868;23;20178;-80
2022/07/13 12:03:29;;;;;;;1.90;1.80;;;30.50;1.00;;;;;;6177533;23;20781;-80
2022/07/13 12:06:02;;;;;;;3.60;2.00;;;30.00;1.00;;;;;;6154019;23;20171;-83
2022/07/13 12:08:31;;;;;;;4.27;1.80;;;29.40;1.00;;;;;;6183097;23;20244;-80
2022/07/13 12:10:58;;;;;;;2.73;1.80;;;29.50;1.00;;;;;;6185722;23;20211;-81
2022/07/13 12:13:33;;;;;;;2.95;1.60;;;29.00;1.00;;;;;;6182779;23;20493;-80
2022/07/13 12:16:00;;;;;;;4.23;1.80;;;29.30;1.00;;;;;;6157692;23;20597;-81
2022/07/13 12:18:28;;;;;;;3.00;1.27;;;29.50;1.00;;;;;;6182711;23;20160;-83
2022/07/13 12:20:58;;;;;;;2.03;1.20;;;29.20;1.00;;;;;;6157563;23;20172;-82
2022/07/13 12:23:31;;;;;;;5.93;1.67;;;29.30;1.00;;;;;;6156679;23;20164;-82
2022/07/13 12:26:06;;;;;;;3.70;1.80;;;30.00;1.00;;;;;;6160235;23;20235;-83
2022/07/13 12:28:37;;;;;;;3.27;1.83;;;30.20;1.00;;;;;;6179740;23;20235;-83
2022/07/13 12:31:07;;;;;;;9.53;2.77;;;29.40;1.00;;;;;;6207648;23;20160;-83
2022/07/13 12:33:46;;;;;;;2.50;2.30;;;29.30;1.00;;;;;;6204504;23;20153;-82
2022/07/13 12:36:14;;;;;;;2.73;2.00;;;29.00;1.00;;;;;;6180731;23;20160;-82
2022/07/13 12:39:04;;;;;;;3.55;2.08;;;28.60;1.00;;;;;;6153930;23;20174;-81
2022/07/13 12:41:40;;;;;;;3.17;1.90;;;28.30;1.00;;;;;;6136280;23;20246;-81
2022/07/13 12:44:08;;;;;;;3.27;2.10;;;28.20;52.90;;;;;;6184731;23;20187;-81
2022/07/13 12:46:50;;;;;;;4.53;2.33;;;27.80;1.00;;;;;;6180044;23;20227;-82
2022/07/13 12:49:18;;;;;;;2.47;1.90;;;27.70;1.00;;;;;;6156564;23;20203;-81
2022/07/13 12:51:49;;;;;;;2.50;2.10;;;27.70;16.20;;;;;;6180164;23;20628;-81
2022/07/13 12:54:16;;;;;;;2.30;2.10;;;27.50;99.90;;;;;;6182725;23;20172;-81
2022/07/13 12:56:49;;;;;;;2.30;2.10;;;27.10;99.90;;;;;;6206958;23;20164;-81
2022/07/13 12:59:18;;;;;;;3.47;2.23;;;27.10;99.90;;;;;;6158551;23;20580;-81
2022/07/13 13:01:47;;;;;;;2.10;1.90;;;27.10;29.00;;;;;;6178099;23;20196;-81
2022/07/13 13:04:16;;;;;;;3.40;2.40;;;27.10;82.30;;;;;;6183087;23;20164;-81
2022/07/13 13:06:46;;;;;;;5.00;2.00;;;27.10;99.90;;;;;;6180971;23;20482;-81
2022/07/13 13:09:18;;;;;;;4.60;2.10;;;27.00;99.90;;;;;;6181139;23;20231;-81
2022/07/13 13:11:46;;;;;;;3.37;2.20;;;26.90;99.90;;;;;;6182641;23;20167;-81
2022/07/13 13:14:15;;;;;;;4.40;2.13;;;26.60;99.90;;;;;;6181659;23;20502;-82